createdAt,value
2018-11-23T00:01:54.355Z,92.40
2018-11-23T00:07:35.581Z,80.07
2018-11-23T00:10:24.335Z,79.42
2018-11-23T00:13:12.024Z,79.72
2018-11-23T00:15:59.605Z,81.57
2018-11-23T00:18:47.209Z,79.25
2018-11-23T00:21:27.470Z,81.80
2018-11-23T00:24:07.977Z,78.45
2018-11-23T00:26:48.565Z,86.80
2018-11-23T00:29:29.923Z,76.95
2018-11-23T00:32:10.163Z,89.37
2018-11-23T00:34:50.848Z,72.92
2018-11-23T00:37:31.722Z,74.80
2018-11-23T00:40:13.071Z,78.02
2018-11-23T00:42:54.335Z,84.32
2018-11-23T00:45:35.663Z,74.62
2018-11-23T00:48:15.939Z,84.28
2018-11-23T00:50:56.924Z,83.05
2018-11-23T00:53:37.281Z,84.92
2018-11-23T00:56:17.669Z,90.60
2018-11-23T00:58:58.028Z,83.80
2018-11-23T01:01:57.726Z,89.62
2018-11-23T01:04:38.601Z,86.67
2018-11-23T01:07:19.638Z,75.92
2018-11-23T01:10:00.118Z,85.28
2018-11-23T01:12:40.504Z,82.35
2018-11-23T01:15:20.921Z,80.50
2018-11-23T01:18:01.414Z,76.42
2018-11-23T01:20:41.703Z,78.70
2018-11-23T01:23:21.961Z,85.72
2018-11-23T01:26:02.223Z,92.30
2018-11-23T01:28:43.345Z,86.63
2018-11-23T01:31:24.352Z,88.62
2018-11-23T01:34:05.340Z,89.45
2018-11-23T01:36:46.144Z,90.25
2018-11-23T01:39:26.660Z,91.47
2018-11-23T01:42:07.535Z,95.45
2018-11-23T01:44:51.590Z,93.60
2018-11-23T01:47:32.442Z,103.58
2018-11-23T01:50:14.581Z,102.00
2018-11-23T01:52:55.043Z,90.70
2018-11-23T01:55:35.789Z,93.80
2018-11-23T01:58:16.069Z,85.07
2018-11-23T02:00:56.998Z,79.30
2018-11-23T02:03:37.270Z,83.07
2018-11-23T02:06:17.433Z,89.35
2018-11-23T02:08:57.978Z,86.57
2018-11-23T02:11:38.292Z,82.20
2018-11-23T02:14:18.720Z,95.03
2018-11-23T02:16:59.089Z,89.05
2018-11-23T02:19:39.449Z,84.40
2018-11-23T02:22:19.974Z,81.57
2018-11-23T02:25:00.314Z,88.00
2018-11-23T02:27:40.813Z,80.00
2018-11-23T02:30:23.237Z,89.17
2018-11-23T02:33:04.014Z,87.45
2018-11-23T02:35:44.617Z,80.65
2018-11-23T02:38:24.949Z,92.65
2018-11-23T02:41:05.325Z,86.57
2018-11-23T02:43:46.470Z,78.92
2018-11-23T02:46:27.080Z,94.17
2018-11-23T02:49:07.980Z,89.05
2018-11-23T02:51:49.100Z,83.37
2018-11-23T02:54:29.711Z,80.05
2018-11-23T02:57:10.413Z,84.10
2018-11-23T02:59:50.985Z,86.20
2018-11-23T03:02:31.945Z,87.05
2018-11-23T03:05:13.565Z,82.62
2018-11-23T03:07:54.237Z,80.00
2018-11-23T03:10:35.281Z,80.35
2018-11-23T03:13:15.640Z,91.37
2018-11-23T03:15:55.882Z,79.65
2018-11-23T03:18:36.237Z,80.83
2018-11-23T03:21:16.756Z,84.32
2018-11-23T03:23:57.283Z,92.20
2018-11-23T03:26:37.777Z,76.65
2018-11-23T03:29:18.193Z,81.42
2018-11-23T03:31:46.771Z,93.97
2018-11-23T03:34:14.861Z,85.30
2018-11-23T03:37:02.450Z,94.35
2018-11-23T03:39:50.035Z,83.58
2018-11-23T03:42:37.662Z,74.92
2018-11-23T03:45:25.246Z,80.77
2018-11-23T03:48:12.845Z,79.40
2018-11-23T03:51:00.440Z,80.45
2018-11-23T03:53:48.014Z,78.35
2018-11-23T03:56:35.866Z,78.55
2018-11-23T03:59:23.533Z,87.60
2018-11-23T04:02:11.125Z,74.27
2018-11-23T04:04:58.724Z,88.35
2018-11-23T04:07:46.499Z,76.40
2018-11-23T04:10:34.080Z,84.17
2018-11-23T04:13:21.657Z,90.00
2018-11-23T04:16:09.261Z,74.77
2018-11-23T04:18:56.858Z,75.83
2018-11-23T04:21:44.445Z,75.57
2018-11-23T04:24:32.167Z,83.60
2018-11-23T04:27:19.742Z,71.33
2018-11-23T04:30:10.917Z,88.90
2018-11-23T04:32:58.768Z,80.12
2018-11-23T04:35:46.375Z,73.75
2018-11-23T04:41:46.288Z,73.42
2018-11-23T04:44:28.521Z,86.12
2018-11-23T04:50:14.117Z,75.00
2018-11-23T04:56:19.444Z,73.40
2018-11-23T04:58:47.537Z,67.85
2018-11-23T05:01:15.630Z,70.28
2018-11-23T05:03:43.741Z,93.82
2018-11-23T05:06:11.899Z,72.47
2018-11-23T05:08:39.990Z,80.42
2018-11-23T05:11:08.096Z,77.37
2018-11-23T05:13:36.172Z,71.02
2018-11-23T05:16:04.557Z,84.70
2018-11-23T05:18:32.644Z,80.85
2018-11-23T05:21:00.776Z,79.72
2018-11-23T05:23:29.056Z,80.00
2018-11-23T05:25:57.141Z,82.12
2018-11-23T05:28:25.227Z,84.90
2018-11-23T05:30:53.320Z,78.42
2018-11-23T05:33:21.432Z,77.60
2018-11-23T05:35:49.532Z,71.35
2018-11-23T05:38:17.977Z,79.87
2018-11-23T05:40:46.125Z,68.90
2018-11-23T05:43:14.291Z,76.92
2018-11-23T05:45:42.605Z,74.27
2018-11-23T05:48:11.132Z,68.02
2018-11-23T05:50:39.385Z,69.22
2018-11-23T05:53:07.498Z,79.45
2018-11-23T05:55:35.614Z,71.77
2018-11-23T05:58:03.711Z,70.92
2018-11-23T06:00:32.630Z,69.75
2018-11-23T06:03:00.744Z,64.70
2018-11-23T06:05:28.883Z,70.25
2018-11-23T06:07:57.114Z,60.85
2018-11-23T06:10:25.205Z,66.53
2018-11-23T06:12:53.316Z,62.00
2018-11-23T06:15:22.688Z,66.75
2018-11-23T06:17:51.005Z,68.83
2018-11-23T06:20:20.882Z,64.20
2018-11-23T06:22:49.895Z,63.80
2018-11-23T06:25:24.245Z,70.05
2018-11-23T06:27:52.518Z,68.02
2018-11-23T06:30:20.652Z,61.40
2018-11-23T06:33:00.252Z,62.20
2018-11-23T06:35:28.404Z,57.93
2018-11-23T06:37:56.529Z,62.55
2018-11-23T06:40:24.640Z,57.80
2018-11-23T06:42:52.756Z,60.65
2018-11-23T06:45:21.284Z,68.55
2018-11-23T06:47:49.389Z,55.50
2018-11-23T06:50:17.505Z,60.95
2018-11-23T06:52:45.618Z,58.98
2018-11-23T06:55:13.738Z,61.48
2018-11-23T06:57:42.233Z,56.10
2018-11-23T07:00:12.887Z,61.70
2018-11-23T07:02:41.454Z,57.30
2018-11-23T07:05:10.138Z,50.92
2018-11-23T07:07:38.246Z,61.25
2018-11-23T07:10:07.861Z,50.17
2018-11-23T07:12:36.232Z,63.30
2018-11-23T07:15:04.495Z,57.05
2018-11-23T07:17:32.624Z,55.50
2018-11-23T07:20:00.728Z,44.13
2018-11-23T07:22:28.863Z,47.62
2018-11-23T07:24:56.954Z,48.83
2018-11-23T07:27:25.056Z,48.95
2018-11-23T07:29:53.229Z,51.58
2018-11-23T07:32:21.319Z,53.23
2018-11-23T07:34:49.463Z,53.48
2018-11-23T07:37:17.564Z,56.77
2018-11-23T07:40:56.169Z,55.75
2018-11-23T07:43:24.281Z,52.43
2018-11-23T07:45:52.376Z,56.10
2018-11-23T07:48:20.553Z,48.90
2018-11-23T07:50:48.738Z,48.25
2018-11-23T07:53:16.899Z,48.30
2018-11-23T07:55:45.040Z,42.50
2018-11-23T07:58:13.180Z,43.25
2018-11-23T08:00:41.346Z,45.90
2018-11-23T08:03:09.500Z,45.17
2018-11-23T08:05:37.633Z,49.13
2018-11-23T08:08:06.097Z,48.25
2018-11-23T08:10:33.541Z,50.17
2018-11-23T08:13:01.798Z,51.18
2018-11-23T08:15:30.008Z,45.98
2018-11-23T08:17:58.197Z,48.65
2018-11-23T08:20:26.690Z,47.45
2018-11-23T08:22:54.881Z,43.83
2018-11-23T08:25:24.197Z,46.90
2018-11-23T08:27:53.767Z,43.28
2018-11-23T08:30:23.518Z,47.50
2018-11-23T08:32:51.741Z,49.80
2018-11-23T08:35:19.901Z,47.48
2018-11-23T08:37:48.082Z,41.63
2018-11-23T08:40:18.521Z,44.08
2018-11-23T08:42:47.645Z,44.75
2018-11-23T08:45:17.379Z,46.05
2018-11-23T08:47:45.500Z,43.42
2018-11-23T08:50:18.221Z,45.25
2018-11-23T08:52:46.338Z,43.10
2018-11-23T08:55:15.370Z,42.05
2018-11-23T08:57:43.738Z,49.93
2018-11-23T09:00:14.800Z,45.28
2018-11-23T09:02:43.966Z,52.60
2018-11-23T09:05:12.096Z,49.67
2018-11-23T09:07:40.286Z,40.60
2018-11-23T09:10:11.063Z,43.85
2018-11-23T09:12:39.189Z,51.88
2018-11-23T09:15:09.375Z,42.98
2018-11-23T09:17:37.600Z,48.68
2018-11-23T09:20:07.385Z,43.50
2018-11-23T09:22:35.482Z,47.38
2018-11-23T09:25:03.624Z,40.20
2018-11-23T09:27:31.744Z,43.52
2018-11-23T09:29:59.885Z,37.67
2018-11-23T09:32:28.074Z,40.95
2018-11-23T09:34:56.253Z,40.25
2018-11-23T09:37:24.410Z,42.73
2018-11-23T09:39:52.677Z,40.05
2018-11-23T09:42:20.859Z,40.00
2018-11-23T09:44:49.055Z,41.42
2018-11-23T09:47:17.196Z,41.92
2018-11-23T09:49:45.359Z,38.80
2018-11-23T09:52:13.588Z,35.92
2018-11-23T09:54:41.793Z,42.73
2018-11-23T09:57:09.961Z,41.05
2018-11-23T09:59:38.140Z,34.05
2018-11-23T10:02:06.313Z,36.70
2018-11-23T10:04:34.460Z,39.80
2018-11-23T10:07:02.617Z,32.33
2018-11-23T10:09:30.764Z,39.92
2018-11-23T10:11:58.888Z,34.20
2018-11-23T10:14:27.010Z,36.05
2018-11-23T10:16:55.181Z,29.42
2018-11-23T10:19:33.471Z,28.25
2018-11-23T10:22:01.609Z,27.58
2018-11-23T10:24:29.768Z,30.17
2018-11-23T10:26:57.950Z,27.40
2018-11-23T10:29:26.084Z,29.98
2018-11-23T10:31:54.278Z,29.90
2018-11-23T10:34:22.487Z,25.72
2018-11-23T10:36:50.630Z,25.05
2018-11-23T10:39:18.812Z,25.97
2018-11-23T10:41:46.979Z,24.00
2018-11-23T10:44:15.136Z,23.12
2018-11-23T10:46:43.478Z,21.70
2018-11-23T10:49:11.635Z,19.55
2018-11-23T10:51:39.784Z,21.05
2018-11-23T10:54:07.988Z,20.12
2018-11-23T10:56:36.157Z,17.10
2018-11-23T10:59:04.824Z,18.05
2018-11-23T11:01:38.474Z,18.90
2018-11-23T11:04:12.137Z,22.05
2018-11-23T11:06:45.841Z,18.70
2018-11-23T11:09:14.016Z,20.97
2018-11-23T11:11:42.649Z,21.45
2018-11-23T11:14:10.808Z,21.52
2018-11-23T11:16:38.982Z,19.37
2018-11-23T11:19:07.628Z,21.10
2018-11-23T11:21:35.800Z,19.40
2018-11-23T11:24:04.306Z,20.25
2018-11-23T11:26:32.457Z,18.67
2018-11-23T11:29:00.617Z,21.85
2018-11-23T11:31:29.009Z,21.42
2018-11-23T11:33:57.218Z,21.68
2018-11-23T11:36:25.429Z,20.52
2018-11-23T11:38:53.565Z,19.30
2018-11-23T11:41:21.749Z,18.95
2018-11-23T11:43:49.870Z,20.62
2018-11-23T11:46:18.045Z,22.55
2018-11-23T11:48:46.197Z,25.05
2018-11-23T11:51:14.761Z,20.97
2018-11-23T11:53:42.578Z,25.05
2018-11-23T11:56:10.760Z,20.62
2018-11-23T11:58:38.912Z,22.02
2018-11-23T12:01:07.205Z,22.30
2018-11-23T12:03:35.349Z,22.20
2018-11-23T12:06:03.565Z,21.75
2018-11-23T12:08:31.696Z,20.05
2018-11-23T12:10:59.888Z,20.52
2018-11-23T12:13:28.093Z,24.85
2018-11-23T12:15:56.262Z,22.82
2018-11-23T12:18:24.413Z,26.15
2018-11-23T12:20:52.594Z,20.10
2018-11-23T12:23:20.838Z,25.92
2018-11-23T12:25:49.028Z,23.27
2018-11-23T12:28:17.186Z,23.92
2018-11-23T12:30:45.391Z,23.65
2018-11-23T12:33:13.536Z,27.40
2018-11-23T12:35:41.691Z,23.05
2018-11-23T12:38:09.895Z,25.25
2018-11-23T12:40:38.080Z,25.68
2018-11-23T12:43:06.220Z,25.27
2018-11-23T12:45:34.484Z,27.90
2018-11-23T12:48:02.623Z,27.20
2018-11-23T12:50:30.775Z,28.07
2018-11-23T12:53:06.182Z,27.77
2018-11-23T12:55:27.136Z,25.82
2018-11-23T12:57:55.293Z,27.65
2018-11-23T13:00:25.656Z,26.73
2018-11-23T13:02:55.201Z,26.45
2018-11-23T13:05:24.383Z,26.77
2018-11-23T13:07:53.400Z,27.62
2018-11-23T13:10:22.335Z,27.93
2018-11-23T13:12:51.051Z,26.17
2018-11-23T13:15:18.700Z,28.32
2018-11-23T13:17:46.848Z,29.50
2018-11-23T13:20:15.731Z,30.80
2018-11-23T13:22:43.972Z,30.35
2018-11-23T13:25:14.717Z,27.95
2018-11-23T13:27:42.961Z,33.80
2018-11-23T13:30:15.901Z,36.25
2018-11-23T13:32:44.241Z,37.80
2018-11-23T13:35:14.188Z,34.83
2018-11-23T13:37:42.581Z,35.35
2018-11-23T13:40:13.318Z,33.48
2018-11-23T13:42:41.634Z,36.53
2018-11-23T13:45:11.462Z,37.20
2018-11-23T13:47:39.622Z,34.78
2018-11-23T13:50:10.173Z,33.58
2018-11-23T13:52:38.352Z,39.55
2018-11-23T13:55:07.160Z,34.20
2018-11-23T13:57:35.446Z,33.88
2018-11-23T14:00:04.341Z,36.42
2018-11-23T14:02:32.520Z,34.15
2018-11-23T14:05:00.726Z,33.05
2018-11-23T14:07:29.048Z,37.20
2018-11-23T14:09:57.357Z,32.60
2018-11-23T14:12:25.496Z,40.28
2018-11-23T14:14:53.642Z,36.68
2018-11-23T14:17:21.874Z,36.68
2018-11-23T14:19:50.150Z,36.70
2018-11-23T14:22:18.307Z,37.40
2018-11-23T14:24:46.496Z,36.93
2018-11-23T14:27:14.667Z,35.43
2018-11-23T14:29:42.799Z,33.48
2018-11-23T14:32:11.373Z,33.50
2018-11-23T14:34:39.657Z,38.05
2018-11-23T14:37:07.901Z,39.38
2018-11-23T14:39:36.280Z,36.25
2018-11-23T14:42:05.389Z,30.23
2018-11-23T14:44:33.616Z,36.98
2018-11-23T14:47:01.913Z,37.83
2018-11-23T14:49:30.205Z,34.60
2018-11-23T14:51:58.831Z,35.55
2018-11-23T14:54:27.097Z,39.40
2018-11-23T14:56:55.413Z,35.80
2018-11-23T14:59:23.672Z,31.85
2018-11-23T15:01:52.240Z,33.50
2018-11-23T15:04:20.114Z,31.87
2018-11-23T15:06:48.357Z,35.70
2018-11-23T15:09:16.683Z,31.62
2018-11-23T15:11:45.128Z,38.08
2018-11-23T15:14:13.501Z,34.20
2018-11-23T15:16:41.860Z,36.33
2018-11-23T15:19:10.057Z,37.15
2018-11-23T15:21:38.289Z,37.48
2018-11-23T15:24:06.542Z,39.70
2018-11-23T15:26:34.773Z,33.65
2018-11-23T15:29:02.949Z,37.67
2018-11-23T15:31:31.111Z,35.98
2018-11-23T15:34:00.162Z,33.40
2018-11-23T15:36:28.349Z,35.17
2018-11-23T15:38:56.565Z,37.13
2018-11-23T15:41:24.753Z,37.10
2018-11-23T15:43:52.985Z,39.00
2018-11-23T15:46:21.201Z,41.42
2018-11-23T15:48:49.522Z,37.98
2018-11-23T15:51:17.649Z,37.73
2018-11-23T15:53:45.897Z,44.90
2018-11-23T15:56:14.044Z,48.10
2018-11-23T15:58:42.206Z,43.08
2018-11-23T16:01:10.603Z,42.40
2018-11-23T16:03:38.750Z,43.90
2018-11-23T16:06:06.878Z,44.88
2018-11-23T16:08:35.057Z,44.10
2018-11-23T16:11:03.204Z,41.23
2018-11-23T16:13:31.357Z,39.73
2018-11-23T16:15:59.510Z,41.83
2018-11-23T16:18:27.748Z,42.05
2018-11-23T16:20:55.900Z,40.40
2018-11-23T16:23:24.099Z,43.15
2018-11-23T16:25:52.630Z,41.18
2018-11-23T16:28:20.830Z,42.65
2018-11-23T16:30:51.157Z,39.48
2018-11-23T16:33:20.938Z,44.27
2018-11-23T16:35:49.129Z,40.03
2018-11-23T16:38:18.734Z,47.20
2018-11-23T16:40:48.546Z,46.60
2018-11-23T16:43:16.944Z,46.50
2018-11-23T16:45:45.598Z,43.60
2018-11-23T16:48:14.508Z,48.25
2018-11-23T16:50:43.084Z,48.28
2018-11-23T16:53:11.308Z,51.15
2018-11-23T16:55:39.446Z,51.48
2018-11-23T16:58:10.743Z,46.25
2018-11-23T17:00:39.890Z,46.77
2018-11-23T17:03:10.757Z,49.23
2018-11-23T17:05:40.424Z,48.08
2018-11-23T17:08:09.240Z,41.90
2018-11-23T17:10:37.441Z,37.83
2018-11-23T17:13:05.657Z,42.00
2018-11-23T17:15:33.834Z,41.80
2018-11-23T17:18:01.983Z,46.75
2018-11-23T17:20:31.417Z,43.95
2018-11-23T17:23:00.707Z,44.05
2018-11-23T17:25:29.714Z,42.75
2018-11-23T17:27:59.325Z,37.50
2018-11-23T17:30:28.746Z,47.70
2018-11-23T17:32:57.038Z,47.93
2018-11-23T17:35:25.471Z,44.35
2018-11-23T17:37:53.629Z,44.00
2018-11-23T17:40:23.961Z,46.40
2018-11-23T17:42:52.236Z,45.67
2018-11-23T17:45:23.088Z,41.70
2018-11-23T17:47:52.029Z,47.23
2018-11-23T17:50:21.957Z,52.35
2018-11-23T17:52:50.871Z,44.65
2018-11-23T17:55:19.091Z,43.15
2018-11-23T17:57:47.749Z,44.38
2018-11-23T18:00:24.682Z,42.62
2018-11-23T18:02:53.664Z,46.65
2018-11-23T18:05:23.014Z,41.33
2018-11-23T18:07:51.436Z,41.55
2018-11-23T18:10:22.941Z,38.63
2018-11-23T18:12:51.349Z,40.15
2018-11-23T18:15:21.868Z,39.13
2018-11-23T18:17:51.044Z,40.95
2018-11-23T18:20:20.473Z,33.85
2018-11-23T18:22:49.424Z,39.67
2018-11-23T18:25:20.758Z,40.40
2018-11-23T18:27:49.393Z,39.40
2018-11-23T18:30:17.545Z,35.92
2018-11-23T18:32:45.904Z,37.63
2018-11-23T18:35:14.045Z,34.43
2018-11-23T18:37:42.181Z,39.63
2018-11-23T18:40:11.460Z,39.25
2018-11-23T18:42:39.592Z,39.23
2018-11-23T18:45:12.216Z,37.75
2018-11-23T18:47:41.139Z,42.03
2018-11-23T18:50:12.431Z,43.13
2018-11-23T18:52:40.665Z,37.23
2018-11-23T18:55:09.912Z,39.67
2018-11-23T18:57:38.192Z,36.08
2018-11-23T19:00:09.462Z,32.95
2018-11-23T19:02:37.600Z,36.88
2018-11-23T19:05:09.503Z,34.23
2018-11-23T19:07:37.665Z,32.35
2018-11-23T19:10:08.397Z,36.17
2018-11-23T19:12:36.578Z,36.70
2018-11-23T19:15:07.400Z,33.02
2018-11-23T19:17:35.674Z,35.13
2018-11-23T19:20:05.474Z,32.50
2018-11-23T19:22:33.774Z,39.65
2018-11-23T19:25:02.032Z,36.08
2018-11-23T19:27:30.205Z,36.98
2018-11-23T19:29:58.381Z,34.43
2018-11-23T19:32:26.592Z,28.77
2018-11-23T19:34:54.717Z,29.27
2018-11-23T19:37:22.883Z,28.73
2018-11-23T19:39:51.018Z,31.30
2018-11-23T19:42:19.147Z,27.37
2018-11-23T19:44:47.484Z,32.93
2018-11-23T19:47:15.977Z,32.83
2018-11-23T19:49:44.360Z,31.52
2018-11-23T19:52:12.519Z,27.77
2018-11-23T19:54:40.654Z,26.93
2018-11-23T19:57:08.942Z,28.75
2018-11-23T19:59:37.073Z,30.32
2018-11-23T20:02:05.219Z,30.62
2018-11-23T20:04:33.436Z,27.55
2018-11-23T20:07:01.592Z,28.10
2018-11-23T20:09:29.799Z,28.52
2018-11-23T20:11:57.925Z,27.98
2018-11-23T20:14:26.151Z,26.77
2018-11-23T20:16:54.397Z,27.48
2018-11-23T20:19:22.509Z,27.00
2018-11-23T20:21:50.819Z,26.82
2018-11-23T20:24:19.006Z,26.93
2018-11-23T20:26:47.228Z,29.70
2018-11-23T20:29:15.389Z,26.17
2018-11-23T20:31:43.516Z,24.32
2018-11-23T20:34:11.648Z,25.30
2018-11-23T20:36:39.781Z,25.02
2018-11-23T20:39:10.345Z,23.85
2018-11-23T20:41:38.749Z,23.10
2018-11-23T20:44:07.135Z,22.73
2018-11-23T20:46:35.736Z,25.25
2018-11-23T20:49:03.878Z,23.75
2018-11-23T20:51:32.000Z,29.63
2018-11-23T20:54:00.159Z,28.85
2018-11-23T20:56:28.300Z,24.02
2018-11-23T20:58:56.456Z,23.50
2018-11-23T21:01:24.597Z,26.23
2018-11-23T21:03:52.724Z,25.02
2018-11-23T21:06:20.904Z,25.75
2018-11-23T21:08:49.032Z,25.60
2018-11-23T21:11:17.136Z,25.37
2018-11-23T21:13:45.353Z,23.20
2018-11-23T21:16:13.453Z,24.60
2018-11-23T21:18:41.636Z,26.00
2018-11-23T21:21:09.737Z,25.75
2018-11-23T21:23:37.973Z,26.25
2018-11-23T21:26:06.228Z,25.75
2018-11-23T21:28:34.348Z,24.55
2018-11-23T21:31:02.477Z,26.05
2018-11-23T21:33:30.584Z,26.33
2018-11-23T21:35:58.672Z,24.95
2018-11-23T21:38:26.804Z,24.98
2018-11-23T21:40:54.912Z,23.92
2018-11-23T21:43:23.024Z,24.40
2018-11-23T21:45:51.152Z,24.85
2018-11-23T21:48:19.293Z,24.60
2018-11-23T21:50:47.403Z,22.42
2018-11-23T21:53:15.491Z,23.12
2018-11-23T21:55:43.639Z,22.98
2018-11-23T21:58:11.764Z,24.10
2018-11-23T22:00:39.941Z,22.82
2018-11-23T22:03:08.072Z,20.90
2018-11-23T22:05:36.171Z,22.42
2018-11-23T22:08:04.473Z,23.05
2018-11-23T22:10:32.577Z,25.48
2018-11-23T22:13:00.721Z,23.38
2018-11-23T22:15:28.881Z,24.37
2018-11-23T22:17:57.414Z,24.25
2018-11-23T22:20:25.969Z,21.70
2018-11-23T22:22:54.073Z,24.80
2018-11-23T22:25:22.938Z,25.85
2018-11-23T22:27:51.099Z,24.55
2018-11-23T22:30:22.828Z,26.35
2018-11-23T22:32:50.938Z,24.15
2018-11-23T22:35:19.048Z,24.35
2018-11-23T22:37:47.173Z,23.07
2018-11-23T22:40:18.044Z,26.33
2018-11-23T22:42:46.117Z,25.40
2018-11-23T22:45:15.409Z,27.70
2018-11-23T22:47:43.551Z,25.32
2018-11-23T22:50:14.094Z,25.45
2018-11-23T22:52:42.245Z,24.87
2018-11-23T22:55:11.380Z,25.02
2018-11-23T22:57:39.485Z,24.87
2018-11-23T23:00:11.124Z,28.27
2018-11-23T23:02:39.282Z,25.57
2018-11-23T23:05:07.646Z,25.92
2018-11-23T23:07:35.760Z,24.20
2018-11-23T23:10:04.233Z,26.00
2018-11-23T23:12:32.341Z,23.12
2018-11-23T23:15:00.489Z,23.02
2018-11-23T23:17:28.646Z,24.00
2018-11-23T23:19:56.765Z,24.18
2018-11-23T23:22:24.983Z,22.30
2018-11-23T23:24:53.068Z,22.25
2018-11-23T23:27:21.177Z,22.32
2018-11-23T23:29:49.317Z,21.10
2018-11-23T23:32:17.427Z,21.20
2018-11-23T23:34:45.532Z,20.85
2018-11-23T23:37:13.657Z,22.65
2018-11-23T23:39:41.811Z,21.15
2018-11-23T23:42:09.915Z,21.52
2018-11-23T23:47:12.618Z,19.42
2018-11-23T23:49:40.743Z,18.60
2018-11-23T23:52:09.065Z,18.85
2018-11-23T23:54:37.185Z,18.55
2018-11-23T23:57:05.340Z,19.77
2018-11-23T23:59:33.449Z,17.80
